sensor_id;sensor_type;location;lat;lon;timestamp;pressure;altitude;pressure_sealevel;temperature;humidity
47761;BME280;33524;55.434;38.520;2023-12-28T00:00:41;99355.00;;;-3.61;100.00
47761;BME280;33524;55.434;38.520;2023-12-28T00:03:10;99351.66;;;-3.63;100.00
47761;BME280;33524;55.434;38.520;2023-12-28T00:05:38;99356.69;;;-3.60;100.00
47761;BME280;33524;55.434;38.520;2023-12-28T00:08:06;99357.84;;;-3.70;100.00
47761;BME280;33524;55.434;38.520;2023-12-28T00:10:35;99365.44;;;-3.66;100.00
47761;BME280;33524;55.434;38.520;2023-12-28T00:13:05;99356.34;;;-3.76;100.00
47761;BME280;33524;55.434;38.520;2023-12-28T00:15:33;99352.63;;;-3.67;100.00
47761;BME280;33524;55.434;38.520;2023-12-28T00:18:04;99363.13;;;-3.47;100.00
47761;BME280;33524;55.434;38.520;2023-12-28T00:20:33;99357.34;;;-3.53;100.00
47761;BME280;33524;55.434;38.520;2023-12-28T00:23:01;99373.38;;;-3.45;100.00
47761;BME280;33524;55.434;38.520;2023-12-28T00:25:29;99367.47;;;-3.49;100.00
47761;BME280;33524;55.434;38.520;2023-12-28T00:27:57;99336.03;;;-3.30;100.00
47761;BME280;33524;55.434;38.520;2023-12-28T00:30:26;99367.47;;;-3.49;100.00
47761;BME280;33524;55.434;38.520;2023-12-28T00:32:54;99363.97;;;-3.46;100.00
47761;BME280;33524;55.434;38.520;2023-12-28T00:35:22;99349.94;;;-3.64;100.00
47761;BME280;33524;55.434;38.520;2023-12-28T00:37:51;99355.84;;;-3.60;100.00
47761;BME280;33524;55.434;38.520;2023-12-28T00:40:19;99367.75;;;-3.58;100.00
47761;BME280;33524;55.434;38.520;2023-12-28T00:42:47;99354.38;;;-3.68;100.00
47761;BME280;33524;55.434;38.520;2023-12-28T00:45:16;99361.97;;;-3.65;100.00
47761;BME280;33524;55.434;38.520;2023-12-28T00:47:43;99348.31;;;-3.38;100.00
47761;BME280;33524;55.434;38.520;2023-12-28T00:50:12;99361.81;;;-3.60;100.00
47761;BME280;33524;55.434;38.520;2023-12-28T00:52:43;99353.91;;;-3.54;100.00
47761;BME280;33524;55.434;38.520;2023-12-28T00:55:11;99352.44;;;-3.61;100.00
47761;BME280;33524;55.434;38.520;2023-12-28T00:57:39;99356.88;;;-3.66;100.00
47761;BME280;33524;55.434;38.520;2023-12-28T01:00:08;99362.13;;;-3.69;100.00
47761;BME280;33524;55.434;38.520;2023-12-28T01:02:36;99362.16;;;-3.42;100.00
47761;BME280;33524;55.434;38.520;2023-12-28T01:05:04;99361.50;;;-3.77;100.00
47761;BME280;33524;55.434;38.520;2023-12-28T01:07:32;99377.72;;;-3.75;100.00
47761;BME280;33524;55.434;38.520;2023-12-28T01:10:00;99381.91;;;-3.73;100.00
47761;BME280;33524;55.434;38.520;2023-12-28T01:12:30;99384.34;;;-3.68;100.00
47761;BME280;33524;55.434;38.520;2023-12-28T01:14:59;99396.31;;;-3.67;100.00
47761;BME280;33524;55.434;38.520;2023-12-28T01:17:30;99398.16;;;-3.72;100.00
47761;BME280;33524;55.434;38.520;2023-12-28T01:19:59;99400.63;;;-3.68;100.00
47761;BME280;33524;55.434;38.520;2023-12-28T01:22:29;99402.28;;;-3.67;100.00
47761;BME280;33524;55.434;38.520;2023-12-28T01:25:01;99396.69;;;-3.25;100.00
47761;BME280;33524;55.434;38.520;2023-12-28T01:27:31;99408.97;;;-3.06;100.00
47761;BME280;33524;55.434;38.520;2023-12-28T01:29:59;99406.87;;;-3.48;100.00
47761;BME280;33524;55.434;38.520;2023-12-28T01:32:27;99408.88;;;-3.58;100.00
47761;BME280;33524;55.434;38.520;2023-12-28T01:34:55;99408.88;;;-3.58;100.00
47761;BME280;33524;55.434;38.520;2023-12-28T01:37:23;99412.53;;;-3.37;100.00
47761;BME280;33524;55.434;38.520;2023-12-28T01:39:51;99417.50;;;-3.59;100.00
47761;BME280;33524;55.434;38.520;2023-12-28T01:42:20;99416.50;;;-3.55;100.00
47761;BME280;33524;55.434;38.520;2023-12-28T01:44:48;99416.41;;;-3.52;100.00
47761;BME280;33524;55.434;38.520;2023-12-28T01:47:16;99417.56;;;-3.62;100.00
47761;BME280;33524;55.434;38.520;2023-12-28T01:49:48;99421.47;;;-3.49;100.00
47761;BME280;33524;55.434;38.520;2023-12-28T01:52:17;99426.78;;;-3.55;100.00
47761;BME280;33524;55.434;38.520;2023-12-28T01:54:46;99430.16;;;-3.53;100.00
47761;BME280;33524;55.434;38.520;2023-12-28T01:57:14;99436.47;;;-3.63;100.00
47761;BME280;33524;55.434;38.520;2023-12-28T01:59:43;99420.69;;;-3.52;100.00
47761;BME280;33524;55.434;38.520;2023-12-28T02:02:13;99423.34;;;-3.27;100.00
47761;BME280;33524;55.434;38.520;2023-12-28T02:04:42;99426.81;;;-3.56;100.00
47761;BME280;33524;55.434;38.520;2023-12-28T02:07:10;99434.56;;;-3.58;100.00
47761;BME280;33524;55.434;38.520;2023-12-28T02:09:40;99440.62;;;-3.59;100.00
47761;BME280;33524;55.434;38.520;2023-12-28T02:12:09;99441.19;;;-3.49;100.00
47761;BME280;33524;55.434;38.520;2023-12-28T02:14:37;99448.00;;;-3.48;100.00
47761;BME280;33524;55.434;38.520;2023-12-28T02:17:25;99450.78;;;-3.56;100.00
47761;BME280;33524;55.434;38.520;2023-12-28T02:20:18;99453.44;;;-3.57;100.00
47761;BME280;33524;55.434;38.520;2023-12-28T02:22:48;99458.75;;;-3.63;100.00
47761;BME280;33524;55.434;38.520;2023-12-28T02:25:16;99442.44;;;-3.62;100.00
47761;BME280;33524;55.434;38.520;2023-12-28T02:27:46;99458.31;;;-3.50;100.00
47761;BME280;33524;55.434;38.520;2023-12-28T02:30:17;99444.44;;;-3.44;100.00
47761;BME280;33524;55.434;38.520;2023-12-28T02:35:34;99457.16;;;-3.39;100.00
47761;BME280;33524;55.434;38.520;2023-12-28T02:38:13;99462.22;;;-3.36;100.00
47761;BME280;33524;55.434;38.520;2023-12-28T02:40:44;99456.44;;;-3.43;100.00
47761;BME280;33524;55.434;38.520;2023-12-28T02:43:12;99456.25;;;-3.37;100.00
47761;BME280;33524;55.434;38.520;2023-12-28T02:45:40;99460.53;;;-3.37;100.00
47761;BME280;33524;55.434;38.520;2023-12-28T02:48:09;99450.59;;;-3.50;100.00
47761;BME280;33524;55.434;38.520;2023-12-28T02:50:37;99470.25;;;-3.47;100.00
47761;BME280;33524;55.434;38.520;2023-12-28T02:53:05;99475.47;;;-3.50;100.00
47761;BME280;33524;55.434;38.520;2023-12-28T02:55:34;99478.44;;;-3.34;100.00
47761;BME280;33524;55.434;38.520;2023-12-28T02:58:03;99472.88;;;-3.49;100.00
47761;BME280;33524;55.434;38.520;2023-12-28T03:00:31;99477.84;;;-3.42;100.00
47761;BME280;33524;55.434;38.520;2023-12-28T03:03:00;99489.94;;;-3.46;100.00
47761;BME280;33524;55.434;38.520;2023-12-28T03:05:28;99483.03;;;-3.46;100.00
47761;BME280;33524;55.434;38.520;2023-12-28T03:07:56;99491.47;;;-3.40;100.00
47761;BME280;33524;55.434;38.520;2023-12-28T03:10:26;99492.78;;;-3.27;100.00
47761;BME280;33524;55.434;38.520;2023-12-28T03:12:55;99492.47;;;-3.45;100.00
47761;BME280;33524;55.434;38.520;2023-12-28T03:15:23;99487.81;;;-3.33;100.00
47761;BME280;33524;55.434;38.520;2023-12-28T03:17:51;99488.75;;;-3.36;100.00
47761;BME280;33524;55.434;38.520;2023-12-28T03:20:20;99490.56;;;-3.39;100.00
47761;BME280;33524;55.434;38.520;2023-12-28T03:22:48;99488.13;;;-3.42;100.00
47761;BME280;33524;55.434;38.520;2023-12-28T03:25:18;99490.53;;;-3.38;100.00
47761;BME280;33524;55.434;38.520;2023-12-28T03:27:46;99492.09;;;-3.32;100.00
47761;BME280;33524;55.434;38.520;2023-12-28T03:30:14;99496.88;;;-3.20;100.00
47761;BME280;33524;55.434;38.520;2023-12-28T03:32:43;99502.88;;;-3.21;100.00
47761;BME280;33524;55.434;38.520;2023-12-28T03:35:11;99495.72;;;-3.11;100.00
47761;BME280;33524;55.434;38.520;2023-12-28T03:37:40;99505.72;;;-3.29;100.00
47761;BME280;33524;55.434;38.520;2023-12-28T03:40:08;99503.88;;;-3.25;100.00
47761;BME280;33524;55.434;38.520;2023-12-28T03:42:36;99495.53;;;-3.33;100.00
47761;BME280;33524;55.434;38.520;2023-12-28T03:45:06;99505.09;;;-3.37;100.00
47761;BME280;33524;55.434;38.520;2023-12-28T03:47:37;99510.31;;;-3.40;100.00
47761;BME280;33524;55.434;38.520;2023-12-28T03:50:06;99511.75;;;-3.31;100.00
47761;BME280;33524;55.434;38.520;2023-12-28T03:52:35;99509.00;;;-3.25;100.00
47761;BME280;33524;55.434;38.520;2023-12-28T03:55:03;99503.56;;;-3.44;100.00
47761;BME280;33524;55.434;38.520;2023-12-28T03:57:32;99516.34;;;-3.41;100.00
47761;BME280;33524;55.434;38.520;2023-12-28T04:00:00;99510.59;;;-3.49;100.00
47761;BME280;33524;55.434;38.520;2023-12-28T04:02:29;99501.44;;;-3.30;100.00
47761;BME280;33524;55.434;38.520;2023-12-28T04:05:02;99513.53;;;-3.33;100.00
47761;BME280;33524;55.434;38.520;2023-12-28T04:07:31;99505.72;;;-3.58;100.00
47761;BME280;33524;55.434;38.520;2023-12-28T04:09:59;99515.00;;;-3.54;100.00
47761;BME280;33524;55.434;38.520;2023-12-28T04:12:30;99506.37;;;-3.52;100.00
47761;BME280;33524;55.434;38.520;2023-12-28T04:14:58;99520.00;;;-3.50;100.00
47761;BME280;33524;55.434;38.520;2023-12-28T04:17:26;99529.06;;;-3.36;100.00
47761;BME280;33524;55.434;38.520;2023-12-28T04:19:54;99531.53;;;-3.33;100.00
47761;BME280;33524;55.434;38.520;2023-12-28T04:22:22;99528.59;;;-3.49;100.00
47761;BME280;33524;55.434;38.520;2023-12-28T04:24:51;99516.66;;;-3.52;100.00
47761;BME280;33524;55.434;38.520;2023-12-28T04:27:19;99515.84;;;-3.54;100.00
47761;BME280;33524;55.434;38.520;2023-12-28T04:29:47;99524.62;;;-3.61;100.00
47761;BME280;33524;55.434;38.520;2023-12-28T04:32:16;99528.00;;;-3.59;100.00
47761;BME280;33524;55.434;38.520;2023-12-28T04:34:44;99517.62;;;-3.56;100.00
47761;BME280;33524;55.434;38.520;2023-12-28T04:37:13;99537.09;;;-3.78;100.00
47761;BME280;33524;55.434;38.520;2023-12-28T04:39:41;99529.66;;;-3.88;100.00
47761;BME280;33524;55.434;38.520;2023-12-28T04:42:09;99527.91;;;-3.87;100.00
47761;BME280;33524;55.434;38.520;2023-12-28T04:44:38;99519.88;;;-3.75;100.00
47761;BME280;33524;55.434;38.520;2023-12-28T04:47:07;99532.22;;;-3.88;100.00
47761;BME280;33524;55.434;38.520;2023-12-28T04:49:36;99522.38;;;-4.03;100.00
47761;BME280;33524;55.434;38.520;2023-12-28T04:52:04;99530.88;;;-3.70;100.00
47761;BME280;33524;55.434;38.520;2023-12-28T04:54:36;99532.38;;;-3.62;100.00
47761;BME280;33524;55.434;38.520;2023-12-28T04:57:07;99540.41;;;-3.14;100.00
47761;BME280;33524;55.434;38.520;2023-12-28T04:59:41;99542.69;;;-3.33;100.00
47761;BME280;33524;55.434;38.520;2023-12-28T05:02:09;99537.19;;;-3.81;100.00
47761;BME280;33524;55.434;38.520;2023-12-28T05:04:38;99546.41;;;-3.74;100.00
47761;BME280;33524;55.434;38.520;2023-12-28T05:07:09;99544.22;;;-3.88;100.00
47761;BME280;33524;55.434;38.520;2023-12-28T05:09:37;99546.97;;;-3.94;100.00
47761;BME280;33524;55.434;38.520;2023-12-28T05:12:06;99547.47;;;-4.14;100.00
47761;BME280;33524;55.434;38.520;2023-12-28T05:14:35;99561.63;;;-4.32;100.00
47761;BME280;33524;55.434;38.520;2023-12-28T05:17:03;99557.09;;;-3.90;100.00
47761;BME280;33524;55.434;38.520;2023-12-28T05:19:31;99540.72;;;-4.18;100.00
47761;BME280;33524;55.434;38.520;2023-12-28T05:22:00;99538.03;;;-4.14;100.00
47761;BME280;33524;55.434;38.520;2023-12-28T05:24:31;99562.28;;;-3.91;100.00
47761;BME280;33524;55.434;38.520;2023-12-28T05:26:59;99548.81;;;-3.68;100.00
47761;BME280;33524;55.434;38.520;2023-12-28T05:29:27;99567.84;;;-2.86;100.00
47761;BME280;33524;55.434;38.520;2023-12-28T05:31:55;99555.22;;;-2.39;100.00
47761;BME280;33524;55.434;38.520;2023-12-28T05:34:24;99555.44;;;-1.95;100.00
47761;BME280;33524;55.434;38.520;2023-12-28T05:36:52;99561.22;;;-1.88;100.00
47761;BME280;33524;55.434;38.520;2023-12-28T05:39:20;99567.13;;;-2.36;100.00
47761;BME280;33524;55.434;38.520;2023-12-28T05:41:49;99558.50;;;-2.09;100.00
47761;BME280;33524;55.434;38.520;2023-12-28T05:44:18;99567.22;;;-1.88;100.00
47761;BME280;33524;55.434;38.520;2023-12-28T05:46:49;99575.75;;;-2.11;100.00
47761;BME280;33524;55.434;38.520;2023-12-28T05:49:18;99573.91;;;-2.34;100.00
47761;BME280;33524;55.434;38.520;2023-12-28T05:51:46;99576.09;;;-2.48;100.00
47761;BME280;33524;55.434;38.520;2023-12-28T05:54:14;99585.88;;;-2.58;100.00
47761;BME280;33524;55.434;38.520;2023-12-28T05:56:43;99584.16;;;-2.59;100.00
47761;BME280;33524;55.434;38.520;2023-12-28T05:59:11;99591.53;;;-2.48;100.00
47761;BME280;33524;55.434;38.520;2023-12-28T06:01:43;99592.69;;;-2.57;100.00
47761;BME280;33524;55.434;38.520;2023-12-28T06:04:12;99595.63;;;-2.14;100.00
47761;BME280;33524;55.434;38.520;2023-12-28T06:06:40;99585.06;;;-2.33;100.00
47761;BME280;33524;55.434;38.520;2023-12-28T06:09:08;99600.84;;;-2.44;100.00
47761;BME280;33524;55.434;38.520;2023-12-28T06:11:37;99614.09;;;-2.83;100.00
47761;BME280;33524;55.434;38.520;2023-12-28T06:14:08;99612.06;;;-3.01;100.00
47761;BME280;33524;55.434;38.520;2023-12-28T06:16:37;99609.41;;;-3.28;100.00
47761;BME280;33524;55.434;38.520;2023-12-28T06:19:05;99610.63;;;-3.41;100.00
47761;BME280;33524;55.434;38.520;2023-12-28T06:21:33;99614.56;;;-3.30;100.00
47761;BME280;33524;55.434;38.520;2023-12-28T06:24:02;99619.63;;;-3.27;100.00
47761;BME280;33524;55.434;38.520;2023-12-28T06:26:30;99614.59;;;-3.61;100.00
47761;BME280;33524;55.434;38.520;2023-12-28T06:28:58;99612.97;;;-3.34;100.00
47761;BME280;33524;55.434;38.520;2023-12-28T06:31:26;99627.00;;;-3.46;100.00
47761;BME280;33524;55.434;38.520;2023-12-28T06:33:55;99630.72;;;-3.89;100.00
47761;BME280;33524;55.434;38.520;2023-12-28T06:36:26;99635.59;;;-4.12;100.00
47761;BME280;33524;55.434;38.520;2023-12-28T06:38:54;99635.75;;;-4.18;100.00
47761;BME280;33524;55.434;38.520;2023-12-28T06:41:23;99645.19;;;-4.19;100.00
47761;BME280;33524;55.434;38.520;2023-12-28T06:43:51;99652.84;;;-4.17;100.00
47761;BME280;33524;55.434;38.520;2023-12-28T06:46:20;99635.97;;;-4.28;100.00
47761;BME280;33524;55.434;38.520;2023-12-28T06:48:48;99643.31;;;-4.14;100.00
47761;BME280;33524;55.434;38.520;2023-12-28T06:51:18;99654.44;;;-4.49;100.00
47761;BME280;33524;55.434;38.520;2023-12-28T06:53:48;99657.31;;;-4.63;100.00
47761;BME280;33524;55.434;38.520;2023-12-28T06:56:17;99666.78;;;-4.65;100.00
47761;BME280;33524;55.434;38.520;2023-12-28T06:58:46;99670.59;;;-4.44;100.00
47761;BME280;33524;55.434;38.520;2023-12-28T07:01:15;99673.69;;;-4.30;100.00
47761;BME280;33524;55.434;38.520;2023-12-28T07:03:43;99674.78;;;-4.41;100.00
47761;BME280;33524;55.434;38.520;2023-12-28T07:06:13;99682.13;;;-4.26;100.00
47761;BME280;33524;55.434;38.520;2023-12-28T07:08:42;99683.69;;;-4.19;100.00
47761;BME280;33524;55.434;38.520;2023-12-28T07:11:10;99685.88;;;-4.03;100.00
47761;BME280;33524;55.434;38.520;2023-12-28T07:13:39;99697.31;;;-3.81;100.00
47761;BME280;33524;55.434;38.520;2023-12-28T07:16:09;99697.19;;;-3.76;100.00
47761;BME280;33524;55.434;38.520;2023-12-28T07:18:37;99707.91;;;-3.59;100.00
47761;BME280;33524;55.434;38.520;2023-12-28T07:21:05;99700.50;;;-3.37;100.00
47761;BME280;33524;55.434;38.520;2023-12-28T07:23:37;99705.34;;;-3.26;100.00
47761;BME280;33524;55.434;38.520;2023-12-28T07:26:06;99710.81;;;-3.38;100.00
47761;BME280;33524;55.434;38.520;2023-12-28T07:28:34;99703.50;;;-3.54;100.00
47761;BME280;33524;55.434;38.520;2023-12-28T07:31:02;99704.00;;;-3.74;100.00
47761;BME280;33524;55.434;38.520;2023-12-28T07:33:30;99709.09;;;-3.72;100.00
47761;BME280;33524;55.434;38.520;2023-12-28T07:35:59;99718.25;;;-3.62;100.00
47761;BME280;33524;55.434;38.520;2023-12-28T07:38:30;99721.25;;;-3.45;100.00
47761;BME280;33524;55.434;38.520;2023-12-28T07:40:58;99719.75;;;-3.20;100.00
47761;BME280;33524;55.434;38.520;2023-12-28T07:43:26;99716.22;;;-3.16;100.00
47761;BME280;33524;55.434;38.520;2023-12-28T07:45:54;99719.06;;;-3.27;100.00
47761;BME280;33524;55.434;38.520;2023-12-28T07:48:23;99725.81;;;-2.92;100.00
47761;BME280;33524;55.434;38.520;2023-12-28T07:50:51;99723.59;;;-2.73;100.00
47761;BME280;33524;55.434;38.520;2023-12-28T07:53:19;99724.91;;;-2.59;100.00
47761;BME280;33524;55.434;38.520;2023-12-28T07:55:47;99725.69;;;-2.56;100.00
47761;BME280;33524;55.434;38.520;2023-12-28T07:58:15;99722.84;;;-2.48;100.00
47761;BME280;33524;55.434;38.520;2023-12-28T08:00:44;99721.94;;;-2.46;100.00
47761;BME280;33524;55.434;38.520;2023-12-28T08:03:12;99723.97;;;-2.57;100.00
47761;BME280;33524;55.434;38.520;2023-12-28T08:05:43;99717.66;;;-2.47;100.00
47761;BME280;33524;55.434;38.520;2023-12-28T08:08:11;99731.09;;;-2.35;100.00
47761;BME280;33524;55.434;38.520;2023-12-28T08:10:39;99718.75;;;-2.26;100.00
47761;BME280;33524;55.434;38.520;2023-12-28T08:13:07;99718.25;;;-2.37;100.00
47761;BME280;33524;55.434;38.520;2023-12-28T08:15:35;99720.66;;;-2.32;100.00
47761;BME280;33524;55.434;38.520;2023-12-28T08:18:04;99724.09;;;-2.32;100.00
47761;BME280;33524;55.434;38.520;2023-12-28T08:20:32;99726.63;;;-2.30;100.00
47761;BME280;33524;55.434;38.520;2023-12-28T08:23:00;99735.00;;;-2.24;100.00
47761;BME280;33524;55.434;38.520;2023-12-28T08:25:44;99717.94;;;-2.28;100.00
47761;BME280;33524;55.434;38.520;2023-12-28T08:28:13;99733.56;;;-2.04;100.00
47761;BME280;33524;55.434;38.520;2023-12-28T08:30:41;99747.28;;;-2.04;100.00
47761;BME280;33524;55.434;38.520;2023-12-28T08:33:10;99744.53;;;-1.99;100.00
47761;BME280;33524;55.434;38.520;2023-12-28T08:35:38;99761.84;;;-1.76;100.00
47761;BME280;33524;55.434;38.520;2023-12-28T08:38:08;99752.13;;;-1.68;100.00
47761;BME280;33524;55.434;38.520;2023-12-28T08:40:37;99757.97;;;-1.88;98.55
47761;BME280;33524;55.434;38.520;2023-12-28T08:43:05;99762.91;;;-1.81;98.05
47761;BME280;33524;55.434;38.520;2023-12-28T08:45:33;99765.41;;;-1.80;98.54
47761;BME280;33524;55.434;38.520;2023-12-28T08:48:04;99767.34;;;-1.87;98.00
47761;BME280;33524;55.434;38.520;2023-12-28T08:50:33;99767.31;;;-1.85;97.49
47761;BME280;33524;55.434;38.520;2023-12-28T08:53:02;99759.56;;;-2.12;97.14
47761;BME280;33524;55.434;38.520;2023-12-28T08:55:31;99756.06;;;-1.83;97.63
47761;BME280;33524;55.434;38.520;2023-12-28T08:57:59;99767.28;;;-1.84;96.26
47761;BME280;33524;55.434;38.520;2023-12-28T09:00:28;99774.47;;;-1.67;95.92
47761;BME280;33524;55.434;38.520;2023-12-28T09:02:56;99766.56;;;-1.62;96.25
47761;BME280;33524;55.434;38.520;2023-12-28T09:05:24;99759.69;;;-1.62;95.29
47761;BME280;33524;55.434;38.520;2023-12-28T09:07:52;99738.94;;;-1.84;94.32
47761;BME280;33524;55.434;38.520;2023-12-28T09:10:21;99748.13;;;-1.76;94.46
47761;BME280;33524;55.434;38.520;2023-12-28T09:12:49;99776.81;;;-1.59;94.47
47761;BME280;33524;55.434;38.520;2023-12-28T09:15:17;99787.91;;;-1.57;94.15
47761;BME280;33524;55.434;38.520;2023-12-28T09:17:45;99787.72;;;-1.77;93.71
47761;BME280;33524;55.434;38.520;2023-12-28T09:20:14;99783.44;;;-1.78;94.15
47761;BME280;33524;55.434;38.520;2023-12-28T09:22:42;99786.72;;;-1.47;93.77
47761;BME280;33524;55.434;38.520;2023-12-28T09:25:10;99782.16;;;-1.38;93.09
47761;BME280;33524;55.434;38.520;2023-12-28T09:27:38;99789.53;;;-1.28;92.34
47761;BME280;33524;55.434;38.520;2023-12-28T09:30:07;99794.34;;;-1.44;91.75
47761;BME280;33524;55.434;38.520;2023-12-28T09:32:36;99789.69;;;-1.59;91.24
47761;BME280;33524;55.434;38.520;2023-12-28T09:35:04;99802.75;;;-1.92;91.25
47761;BME280;33524;55.434;38.520;2023-12-28T09:37:32;99802.56;;;-1.86;91.09
47761;BME280;33524;55.434;38.520;2023-12-28T09:40:00;99800.88;;;-1.87;89.77
47761;BME280;33524;55.434;38.520;2023-12-28T09:45:33;99788.47;;;-2.02;88.56
47761;BME280;33524;55.434;38.520;2023-12-28T09:48:01;99797.78;;;-1.98;87.93
47761;BME280;33524;55.434;38.520;2023-12-28T09:50:30;99808.66;;;-2.16;88.19
47761;BME280;33524;55.434;38.520;2023-12-28T09:52:59;99818.56;;;-2.03;88.20
47761;BME280;33524;55.434;38.520;2023-12-28T09:55:28;99820.72;;;-2.18;88.29
47761;BME280;33524;55.434;38.520;2023-12-28T09:57:57;99818.56;;;-2.03;88.50
47761;BME280;33524;55.434;38.520;2023-12-28T10:00:28;99819.91;;;-2.19;88.47
47761;BME280;33524;55.434;38.520;2023-12-28T10:02:57;99806.75;;;-2.11;89.09
47761;BME280;33524;55.434;38.520;2023-12-28T10:05:25;99818.00;;;-2.14;88.86
47761;BME280;33524;55.434;38.520;2023-12-28T10:07:55;99828.09;;;-2.06;89.21
47761;BME280;33524;55.434;38.520;2023-12-28T10:10:24;99829.22;;;-2.15;89.43
47761;BME280;33524;55.434;38.520;2023-12-28T10:12:52;99836.69;;;-2.35;90.01
47761;BME280;33524;55.434;38.520;2023-12-28T10:15:23;99821.50;;;-2.15;90.55
47761;BME280;33524;55.434;38.520;2023-12-28T10:17:53;99818.56;;;-2.03;90.52
47761;BME280;33524;55.434;38.520;2023-12-28T10:20:21;99798.06;;;-2.07;90.38
47761;BME280;33524;55.434;38.520;2023-12-28T10:22:49;99817.28;;;-1.89;90.70
47761;BME280;33524;55.434;38.520;2023-12-28T10:25:17;99827.22;;;-1.77;90.66
47761;BME280;33524;55.434;38.520;2023-12-28T10:27:45;99822.81;;;-2.01;90.64
47761;BME280;33524;55.434;38.520;2023-12-28T10:30:13;99821.94;;;-2.00;91.07
47761;BME280;33524;55.434;38.520;2023-12-28T10:32:42;99816.28;;;-2.13;91.50
47761;BME280;33524;55.434;38.520;2023-12-28T10:35:11;99818.84;;;-2.13;91.50
47761;BME280;33524;55.434;38.520;2023-12-28T10:37:40;99801.91;;;-2.20;91.95
47761;BME280;33524;55.434;38.520;2023-12-28T10:40:13;99811.91;;;-2.11;91.91
47761;BME280;33524;55.434;38.520;2023-12-28T10:43:02;99810.28;;;-2.14;92.21
47761;BME280;33524;55.434;38.520;2023-12-28T10:45:33;99808.91;;;-2.26;92.90
47761;BME280;33524;55.434;38.520;2023-12-28T10:50:47;99810.13;;;-2.09;93.24
47761;BME280;33524;55.434;38.520;2023-12-28T10:53:30;99811.59;;;-2.29;93.09
47761;BME280;33524;55.434;38.520;2023-12-28T10:56:23;99807.12;;;-2.24;93.67
47761;BME280;33524;55.434;38.520;2023-12-28T10:59:30;99808.78;;;-2.21;93.22
47761;BME280;33524;55.434;38.520;2023-12-28T11:02:02;99809.97;;;-2.33;93.56
47761;BME280;33524;55.434;38.520;2023-12-28T11:04:37;99802.59;;;-2.15;93.20
47761;BME280;33524;55.434;38.520;2023-12-28T11:07:10;99810.84;;;-2.04;93.32
47761;BME280;33524;55.434;38.520;2023-12-28T11:09:44;99809.16;;;-2.05;92.71
47761;BME280;33524;55.434;38.520;2023-12-28T11:12:15;99809.78;;;-1.97;93.23
47761;BME280;33524;55.434;38.520;2023-12-28T11:14:50;99811.28;;;-1.90;92.88
47761;BME280;33524;55.434;38.520;2023-12-28T11:17:20;99812.91;;;-1.87;92.33
47761;BME280;33524;55.434;38.520;2023-12-28T11:19:54;99804.16;;;-1.81;92.31
47761;BME280;33524;55.434;38.520;2023-12-28T11:22:23;99820.00;;;-1.94;91.95
47761;BME280;33524;55.434;38.520;2023-12-28T11:24:53;99814.06;;;-1.96;92.20
47761;BME280;33524;55.434;38.520;2023-12-28T11:27:21;99817.47;;;-1.95;92.16
47761;BME280;33524;55.434;38.520;2023-12-28T11:29:51;99823.75;;;-2.04;92.07
47761;BME280;33524;55.434;38.520;2023-12-28T11:32:19;99830.47;;;-1.98;92.27
47761;BME280;33524;55.434;38.520;2023-12-28T11:34:57;99827.00;;;-1.99;92.22
47761;BME280;33524;55.434;38.520;2023-12-28T11:37:30;99790.56;;;-2.45;92.09
47761;BME280;33524;55.434;38.520;2023-12-28T11:40:10;99817.44;;;-2.24;92.47
47761;BME280;33524;55.434;38.520;2023-12-28T11:42:50;99833.00;;;-2.27;92.88
47761;BME280;33524;55.434;38.520;2023-12-28T11:45:19;99825.47;;;-2.34;93.05
47761;BME280;33524;55.434;38.520;2023-12-28T11:48:01;99831.34;;;-2.29;93.03
47761;BME280;33524;55.434;38.520;2023-12-28T11:50:31;99834.22;;;-2.40;93.63
47761;BME280;33524;55.434;38.520;2023-12-28T11:53:00;99839.69;;;-2.52;93.74
47761;BME280;33524;55.434;38.520;2023-12-28T11:55:28;99831.34;;;-2.60;93.87
47761;BME280;33524;55.434;38.520;2023-12-28T11:57:57;99838.81;;;-2.51;94.07
47761;BME280;33524;55.434;38.520;2023-12-28T12:00:25;99834.13;;;-2.67;94.46
47761;BME280;33524;55.434;38.520;2023-12-28T12:02:54;99832.09;;;-2.88;94.83
47761;BME280;33524;55.434;38.520;2023-12-28T12:05:24;99848.81;;;-3.05;95.56
47761;BME280;33524;55.434;38.520;2023-12-28T12:07:52;99845.75;;;-3.19;96.44
47761;BME280;33524;55.434;38.520;2023-12-28T12:10:23;99851.28;;;-3.34;96.31
47761;BME280;33524;55.434;38.520;2023-12-28T12:12:55;99857.59;;;-3.12;95.45
47761;BME280;33524;55.434;38.520;2023-12-28T12:15:24;99855.09;;;-3.16;94.27
47761;BME280;33524;55.434;38.520;2023-12-28T12:17:58;99861.78;;;-3.08;93.50
47761;BME280;33524;55.434;38.520;2023-12-28T12:20:27;99857.03;;;-2.90;94.32
47761;BME280;33524;55.434;38.520;2023-12-28T12:22:59;99852.53;;;-2.82;93.66
47761;BME280;33524;55.434;38.520;2023-12-28T12:25:28;99854.56;;;-2.95;92.03
47761;BME280;33524;55.434;38.520;2023-12-28T12:27:56;99857.28;;;-2.99;92.24
47761;BME280;33524;55.434;38.520;2023-12-28T12:30:25;99871.09;;;-3.03;92.15
47761;BME280;33524;55.434;38.520;2023-12-28T12:32:53;99870.34;;;-3.09;92.80
47761;BME280;33524;55.434;38.520;2023-12-28T12:35:21;99875.62;;;-3.13;93.36
47761;BME280;33524;55.434;38.520;2023-12-28T12:37:49;99874.84;;;-3.17;93.65
47761;BME280;33524;55.434;38.520;2023-12-28T12:40:19;99882.50;;;-3.14;94.53
47761;BME280;33524;55.434;38.520;2023-12-28T12:42:54;99881.28;;;-3.00;95.90
47761;BME280;33524;55.434;38.520;2023-12-28T12:45:23;99881.09;;;-3.27;93.99
47761;BME280;33524;55.434;38.520;2023-12-28T12:47:51;99881.47;;;-3.08;95.41
47761;BME280;33524;55.434;38.520;2023-12-28T12:50:20;99879.28;;;-3.22;94.51
47761;BME280;33524;55.434;38.520;2023-12-28T12:52:49;99882.16;;;-3.36;94.49
47761;BME280;33524;55.434;38.520;2023-12-28T12:55:17;99879.69;;;-3.39;94.29
47761;BME280;33524;55.434;38.520;2023-12-28T12:57:46;99881.72;;;-3.17;94.77
47761;BME280;33524;55.434;38.520;2023-12-28T13:00:14;99889.69;;;-2.94;95.89
47761;BME280;33524;55.434;38.520;2023-12-28T13:02:44;99868.97;;;-3.22;93.60